sensor_id;sensor_type;location;lat;lon;timestamp;pressure;altitude;pressure_sealevel;temperature;humidity
44839;BME280;30576;42.098;24.876;2023-04-25T00:01:20;98942.66;;;13.85;86.89
44839;BME280;30576;42.098;24.876;2023-04-25T00:03:49;98909.66;;;14.14;85.39
44839;BME280;30576;42.098;24.876;2023-04-25T00:06:15;98888.94;;;14.02;85.56
44839;BME280;30576;42.098;24.876;2023-04-25T00:08:41;98903.41;;;13.95;86.12
44839;BME280;30576;42.098;24.876;2023-04-25T00:11:06;98985.88;;;14.31;86.23
44839;BME280;30576;42.098;24.876;2023-04-25T00:13:32;98914.78;;;13.97;86.01
44839;BME280;30576;42.098;24.876;2023-04-25T00:15:57;98976.25;;;14.29;86.28
44839;BME280;30576;42.098;24.876;2023-04-25T00:18:23;98992.66;;;14.59;86.55
44839;BME280;30576;42.098;24.876;2023-04-25T00:20:49;98960.03;;;14.14;87.14
44839;BME280;30576;42.098;24.876;2023-04-25T00:23:17;98976.88;;;13.91;89.12
44839;BME280;30576;42.098;24.876;2023-04-25T00:25:48;98902.63;;;13.01;92.76
44839;BME280;30576;42.098;24.876;2023-04-25T00:28:14;98867.53;;;12.96;93.81
44839;BME280;30576;42.098;24.876;2023-04-25T00:30:40;98938.41;;;13.59;91.33
44839;BME280;30576;42.098;24.876;2023-04-25T00:33:06;98924.06;;;13.65;90.89
44839;BME280;30576;42.098;24.876;2023-04-25T00:35:32;98967.44;;;14.06;89.59
44839;BME280;30576;42.098;24.876;2023-04-25T00:37:58;98914.38;;;13.64;89.25
44839;BME280;30576;42.098;24.876;2023-04-25T00:40:23;98968.75;;;13.74;90.62
44839;BME280;30576;42.098;24.876;2023-04-25T00:42:49;98869.56;;;13.35;90.31
44839;BME280;30576;42.098;24.876;2023-04-25T00:45:17;98887.22;;;13.11;90.63
44839;BME280;30576;42.098;24.876;2023-04-25T00:47:43;98907.59;;;13.33;91.31
44839;BME280;30576;42.098;24.876;2023-04-25T00:50:09;98906.22;;;13.46;90.37
44839;BME280;30576;42.098;24.876;2023-04-25T00:52:40;98866.19;;;13.54;88.40
44839;BME280;30576;42.098;24.876;2023-04-25T00:55:07;98975.28;;;14.09;88.39
44839;BME280;30576;42.098;24.876;2023-04-25T00:57:33;98896.84;;;13.37;88.67
44839;BME280;30576;42.098;24.876;2023-04-25T00:59:59;98902.03;;;13.40;87.99
44839;BME280;30576;42.098;24.876;2023-04-25T01:02:25;98901.56;;;13.29;88.89
44839;BME280;30576;42.098;24.876;2023-04-25T01:04:52;98900.38;;;13.38;88.88
44839;BME280;30576;42.098;24.876;2023-04-25T01:07:18;98961.09;;;13.66;88.65
44839;BME280;30576;42.098;24.876;2023-04-25T01:09:44;98884.66;;;13.33;89.01
44839;BME280;30576;42.098;24.876;2023-04-25T01:12:09;98873.53;;;13.23;89.81
44839;BME280;30576;42.098;24.876;2023-04-25T01:14:35;98933.63;;;13.69;90.59
44839;BME280;30576;42.098;24.876;2023-04-25T01:17:01;98895.13;;;13.13;90.83
44839;BME280;30576;42.098;24.876;2023-04-25T01:19:26;98923.88;;;13.47;89.49
44839;BME280;30576;42.098;24.876;2023-04-25T01:21:52;98867.97;;;13.30;88.97
44839;BME280;30576;42.098;24.876;2023-04-25T01:24:19;98845.41;;;13.21;88.19
44839;BME280;30576;42.098;24.876;2023-04-25T01:26:46;98915.75;;;13.52;88.88
44839;BME280;30576;42.098;24.876;2023-04-25T01:29:18;98907.19;;;13.67;87.62
44839;BME280;30576;42.098;24.876;2023-04-25T01:31:45;98892.66;;;13.76;86.54
44839;BME280;30576;42.098;24.876;2023-04-25T01:34:12;98877.56;;;13.56;87.13
44839;BME280;30576;42.098;24.876;2023-04-25T01:36:38;98863.56;;;13.30;88.37
44839;BME280;30576;42.098;24.876;2023-04-25T01:39:04;98871.59;;;13.51;87.71
44839;BME280;30576;42.098;24.876;2023-04-25T01:41:30;98856.53;;;13.29;88.35
44839;BME280;30576;42.098;24.876;2023-04-25T01:43:56;98894.31;;;13.58;88.23
44839;BME280;30576;42.098;24.876;2023-04-25T01:46:22;98892.75;;;13.52;88.38
44839;BME280;30576;42.098;24.876;2023-04-25T01:48:47;98950.97;;;13.76;88.89
44839;BME280;30576;42.098;24.876;2023-04-25T01:51:13;98901.66;;;13.50;89.14
44839;BME280;30576;42.098;24.876;2023-04-25T01:53:39;98964.25;;;13.98;88.32
44839;BME280;30576;42.098;24.876;2023-04-25T01:56:05;98936.41;;;13.66;89.88
44839;BME280;30576;42.098;24.876;2023-04-25T01:58:30;98870.69;;;13.52;89.06
44839;BME280;30576;42.098;24.876;2023-04-25T02:00:56;98852.75;;;13.36;89.25
44839;BME280;30576;42.098;24.876;2023-04-25T02:03:22;98945.38;;;14.06;88.74
44839;BME280;30576;42.098;24.876;2023-04-25T02:05:47;98891.69;;;13.78;88.35
44839;BME280;30576;42.098;24.876;2023-04-25T02:08:13;98953.56;;;14.22;88.55
44839;BME280;30576;42.098;24.876;2023-04-25T02:10:38;98913.16;;;13.72;89.00
44839;BME280;30576;42.098;24.876;2023-04-25T02:13:04;98955.53;;;13.94;90.41
44839;BME280;30576;42.098;24.876;2023-04-25T02:15:30;98884.44;;;13.39;90.70
44839;BME280;30576;42.098;24.876;2023-04-25T02:17:56;98898.78;;;13.32;92.38
44839;BME280;30576;42.098;24.876;2023-04-25T02:20:23;98916.03;;;13.44;92.66
44839;BME280;30576;42.098;24.876;2023-04-25T02:22:49;98909.56;;;13.51;92.94
44839;BME280;30576;42.098;24.876;2023-04-25T02:25:16;98866.06;;;13.35;91.99
44839;BME280;30576;42.098;24.876;2023-04-25T02:27:42;98849.06;;;13.40;91.20
44839;BME280;30576;42.098;24.876;2023-04-25T02:30:08;98883.94;;;13.74;90.28
44839;BME280;30576;42.098;24.876;2023-04-25T02:32:34;98875.19;;;13.72;89.80
44839;BME280;30576;42.098;24.876;2023-04-25T02:35:01;98919.44;;;13.92;89.55
44839;BME280;30576;42.098;24.876;2023-04-25T02:37:33;98933.97;;;14.04;89.89
44839;BME280;30576;42.098;24.876;2023-04-25T02:39:59;98864.31;;;13.56;90.66
44839;BME280;30576;42.098;24.876;2023-04-25T02:42:25;98830.97;;;13.52;90.61
44839;BME280;30576;42.098;24.876;2023-04-25T02:44:50;98850.44;;;13.71;89.94
44839;BME280;30576;42.098;24.876;2023-04-25T02:47:16;98865.19;;;13.78;89.08
44839;BME280;30576;42.098;24.876;2023-04-25T02:49:41;98929.38;;;14.29;88.88
44839;BME280;30576;42.098;24.876;2023-04-25T02:52:07;98905.34;;;14.12;89.33
44839;BME280;30576;42.098;24.876;2023-04-25T02:54:32;98863.44;;;13.77;89.17
44839;BME280;30576;42.098;24.876;2023-04-25T02:56:58;98845.28;;;13.68;89.21
44839;BME280;30576;42.098;24.876;2023-04-25T02:59:23;98857.38;;;13.75;89.57
44839;BME280;30576;42.098;24.876;2023-04-25T03:01:49;98859.03;;;13.78;89.61
44839;BME280;30576;42.098;24.876;2023-04-25T03:04:15;98890.56;;;14.06;88.81
44839;BME280;30576;42.098;24.876;2023-04-25T03:06:40;98944.97;;;14.37;89.00
44839;BME280;30576;42.098;24.876;2023-04-25T03:09:05;98903.16;;;14.01;88.48
44839;BME280;30576;42.098;24.876;2023-04-25T03:11:31;98953.91;;;14.35;88.78
44839;BME280;30576;42.098;24.876;2023-04-25T03:13:57;98911.16;;;14.00;88.42
44839;BME280;30576;42.098;24.876;2023-04-25T03:16:22;98888.97;;;13.80;88.76
44839;BME280;30576;42.098;24.876;2023-04-25T03:18:48;98855.53;;;13.55;89.60
44839;BME280;30576;42.098;24.876;2023-04-25T03:21:15;98906.53;;;13.60;90.60
44839;BME280;30576;42.098;24.876;2023-04-25T03:23:41;98884.91;;;13.49;91.56
44839;BME280;30576;42.098;24.876;2023-04-25T03:26:06;98892.00;;;13.49;92.15
44839;BME280;30576;42.098;24.876;2023-04-25T03:28:32;98873.59;;;13.46;91.22
44839;BME280;30576;42.098;24.876;2023-04-25T03:30:57;98879.13;;;13.39;91.64
44839;BME280;30576;42.098;24.876;2023-04-25T03:33:23;98893.34;;;13.37;92.45
44839;BME280;30576;42.098;24.876;2023-04-25T03:35:48;98934.97;;;13.57;93.51
44839;BME280;30576;42.098;24.876;2023-04-25T03:38:15;98867.56;;;13.18;94.25
44839;BME280;30576;42.098;24.876;2023-04-25T03:40:40;98853.56;;;13.38;92.96
44839;BME280;30576;42.098;24.876;2023-04-25T03:43:06;98830.47;;;13.18;93.73
44839;BME280;30576;42.098;24.876;2023-04-25T03:45:32;98912.53;;;13.88;91.94
44839;BME280;30576;42.098;24.876;2023-04-25T03:47:58;98865.03;;;13.61;91.40
44839;BME280;30576;42.098;24.876;2023-04-25T03:50:23;98879.06;;;13.63;92.22
44839;BME280;30576;42.098;24.876;2023-04-25T03:52:48;98924.63;;;14.15;91.25
44839;BME280;30576;42.098;24.876;2023-04-25T03:55:15;98885.41;;;13.81;91.67
44839;BME280;30576;42.098;24.876;2023-04-25T03:57:40;98869.38;;;13.84;90.96
44839;BME280;30576;42.098;24.876;2023-04-25T04:00:06;98846.59;;;13.58;90.87
44839;BME280;30576;42.098;24.876;2023-04-25T04:02:33;98929.50;;;14.26;91.15
44839;BME280;30576;42.098;24.876;2023-04-25T04:05:01;98932.81;;;14.31;90.36
44839;BME280;30576;42.098;24.876;2023-04-25T04:07:26;98823.50;;;13.82;89.70
44839;BME280;30576;42.098;24.876;2023-04-25T04:09:52;98827.28;;;13.76;89.69
44839;BME280;30576;42.098;24.876;2023-04-25T04:12:17;98844.06;;;13.97;89.74
44839;BME280;30576;42.098;24.876;2023-04-25T04:14:43;98852.91;;;13.98;89.76
44839;BME280;30576;42.098;24.876;2023-04-25T04:17:08;98838.88;;;13.94;90.22
44839;BME280;30576;42.098;24.876;2023-04-25T04:19:34;98911.75;;;14.49;89.88
44839;BME280;30576;42.098;24.876;2023-04-25T04:22:00;98861.44;;;14.05;89.74
44839;BME280;30576;42.098;24.876;2023-04-25T04:24:25;98878.50;;;14.20;89.21
44839;BME280;30576;42.098;24.876;2023-04-25T04:26:51;98869.66;;;14.19;88.64
44839;BME280;30576;42.098;24.876;2023-04-25T04:29:17;98839.66;;;13.98;88.27
44839;BME280;30576;42.098;24.876;2023-04-25T04:31:49;98868.81;;;13.98;89.54
44839;BME280;30576;42.098;24.876;2023-04-25T04:34:16;98877.09;;;14.11;89.64
44839;BME280;30576;42.098;24.876;2023-04-25T04:36:43;98881.03;;;14.23;89.15
44839;BME280;30576;42.098;24.876;2023-04-25T04:39:11;98853.75;;;14.19;88.77
44839;BME280;30576;42.098;24.876;2023-04-25T04:41:37;98854.91;;;14.13;87.81
44839;BME280;30576;42.098;24.876;2023-04-25T04:44:03;98873.00;;;14.24;87.85
44839;BME280;30576;42.098;24.876;2023-04-25T04:46:28;98950.19;;;14.59;88.93
44839;BME280;30576;42.098;24.876;2023-04-25T04:48:54;98938.59;;;14.41;90.41
44839;BME280;30576;42.098;24.876;2023-04-25T04:51:21;98844.41;;;14.10;89.58
44839;BME280;30576;42.098;24.876;2023-04-25T04:53:47;98926.38;;;14.58;90.25
44839;BME280;30576;42.098;24.876;2023-04-25T04:56:13;98889.06;;;14.62;90.49
44839;BME280;30576;42.098;24.876;2023-04-25T04:58:39;98877.31;;;14.68;89.89
44839;BME280;30576;42.098;24.876;2023-04-25T05:01:04;98874.53;;;14.71;89.79
44839;BME280;30576;42.098;24.876;2023-04-25T05:03:30;98938.25;;;15.11;89.82
44839;BME280;30576;42.098;24.876;2023-04-25T05:05:55;98854.47;;;15.03;88.64
44839;BME280;30576;42.098;24.876;2023-04-25T05:08:21;98874.56;;;15.28;85.92
44839;BME280;30576;42.098;24.876;2023-04-25T05:10:46;98891.56;;;15.43;86.44
44839;BME280;30576;42.098;24.876;2023-04-25T05:13:12;98851.34;;;15.51;85.66
44839;BME280;30576;42.098;24.876;2023-04-25T05:15:38;98832.09;;;15.46;84.99
44839;BME280;30576;42.098;24.876;2023-04-25T05:18:03;98865.75;;;15.64;82.66
44839;BME280;30576;42.098;24.876;2023-04-25T05:20:29;98831.09;;;15.66;82.40
44839;BME280;30576;42.098;24.876;2023-04-25T05:22:54;98838.78;;;15.35;81.48
44839;BME280;30576;42.098;24.876;2023-04-25T05:25:20;98931.94;;;15.51;83.82
44839;BME280;30576;42.098;24.876;2023-04-25T05:27:45;98870.44;;;15.21;84.26
44839;BME280;30576;42.098;24.876;2023-04-25T05:30:11;98887.31;;;15.58;82.45
44839;BME280;30576;42.098;24.876;2023-04-25T05:32:36;98830.47;;;15.43;81.60
44839;BME280;30576;42.098;24.876;2023-04-25T05:35:02;98878.81;;;15.32;82.24
44839;BME280;30576;42.098;24.876;2023-04-25T05:37:28;98890.31;;;15.50;81.60
44839;BME280;30576;42.098;24.876;2023-04-25T05:39:55;98913.09;;;15.56;83.49
44839;BME280;30576;42.098;24.876;2023-04-25T05:42:21;98876.25;;;15.48;82.99
44839;BME280;30576;42.098;24.876;2023-04-25T05:44:46;98930.28;;;16.04;82.44
44839;BME280;30576;42.098;24.876;2023-04-25T05:47:12;98846.84;;;15.34;82.37
44839;BME280;30576;42.098;24.876;2023-04-25T05:49:37;98948.50;;;15.95;83.24
44839;BME280;30576;42.098;24.876;2023-04-25T05:52:03;98882.13;;;15.74;82.99
44839;BME280;30576;42.098;24.876;2023-04-25T05:54:29;98886.69;;;15.89;82.52
44839;BME280;30576;42.098;24.876;2023-04-25T05:56:56;98865.66;;;15.66;79.96
44839;BME280;30576;42.098;24.876;2023-04-25T05:59:22;98891.72;;;15.76;80.20
44839;BME280;30576;42.098;24.876;2023-04-25T06:01:48;98834.28;;;14.99;83.21
44839;BME280;30576;42.098;24.876;2023-04-25T06:04:13;98870.91;;;15.31;82.01
44839;BME280;30576;42.098;24.876;2023-04-25T06:06:39;98897.38;;;15.51;81.37
44839;BME280;30576;42.098;24.876;2023-04-25T06:09:05;98896.38;;;15.54;80.45
44839;BME280;30576;42.098;24.876;2023-04-25T06:11:30;98847.72;;;15.15;80.57
44839;BME280;30576;42.098;24.876;2023-04-25T06:13:56;98928.56;;;15.48;80.59
44839;BME280;30576;42.098;24.876;2023-04-25T06:16:21;98901.84;;;15.32;81.94
44839;BME280;30576;42.098;24.876;2023-04-25T06:18:48;98888.69;;;15.29;82.53
44839;BME280;30576;42.098;24.876;2023-04-25T06:21:14;98835.78;;;15.43;84.32
44839;BME280;30576;42.098;24.876;2023-04-25T06:23:39;98835.94;;;16.11;82.09
44839;BME280;30576;42.098;24.876;2023-04-25T06:26:05;98845.34;;;16.52;77.81
44839;BME280;30576;42.098;24.876;2023-04-25T06:28:30;98929.16;;;17.13;76.29
44839;BME280;30576;42.098;24.876;2023-04-25T06:30:56;98880.94;;;17.18;73.60
44839;BME280;30576;42.098;24.876;2023-04-25T06:33:21;98888.25;;;17.30;72.63
44839;BME280;30576;42.098;24.876;2023-04-25T06:35:47;98856.50;;;17.42;73.04
44839;BME280;30576;42.098;24.876;2023-04-25T06:38:13;98871.63;;;17.89;71.97
44839;BME280;30576;42.098;24.876;2023-04-25T06:40:39;98879.19;;;17.65;71.83
44839;BME280;30576;42.098;24.876;2023-04-25T06:43:04;98869.75;;;17.59;72.05
44839;BME280;30576;42.098;24.876;2023-04-25T06:45:30;98846.78;;;17.57;71.47
44839;BME280;30576;42.098;24.876;2023-04-25T06:47:56;98903.09;;;17.82;69.76
44839;BME280;30576;42.098;24.876;2023-04-25T06:50:21;98872.81;;;17.99;69.15
44839;BME280;30576;42.098;24.876;2023-04-25T06:52:47;98828.34;;;18.14;69.88
44839;BME280;30576;42.098;24.876;2023-04-25T06:55:12;98842.34;;;17.87;71.72
44839;BME280;30576;42.098;24.876;2023-04-25T06:57:38;98822.03;;;18.74;68.25
44839;BME280;30576;42.098;24.876;2023-04-25T07:00:04;98826.41;;;19.04;66.63
44839;BME280;30576;42.098;24.876;2023-04-25T07:02:36;98824.91;;;18.86;64.70
44839;BME280;30576;42.098;24.876;2023-04-25T07:05:02;98840.06;;;18.71;66.66
44839;BME280;30576;42.098;24.876;2023-04-25T07:07:30;98878.78;;;19.21;64.91
44839;BME280;30576;42.098;24.876;2023-04-25T07:09:56;98864.91;;;19.02;63.62
44839;BME280;30576;42.098;24.876;2023-04-25T07:12:21;98856.25;;;19.25;64.81
44839;BME280;30576;42.098;24.876;2023-04-25T07:14:47;98861.94;;;19.90;62.38
44839;BME280;30576;42.098;24.876;2023-04-25T07:17:12;98844.31;;;20.13;61.21
44839;BME280;30576;42.098;24.876;2023-04-25T09:19:35;98820.34;;;21.25;54.52
44839;BME280;30576;42.098;24.876;2023-04-25T09:22:06;98828.44;;;21.13;55.26
44839;BME280;30576;42.098;24.876;2023-04-25T09:24:48;98808.22;;;20.57;56.54
44839;BME280;30576;42.098;24.876;2023-04-25T09:30:46;98834.25;;;20.16;60.63
44839;BME280;30576;42.098;24.876;2023-04-25T09:37:02;98823.59;;;19.89;60.50
44839;BME280;30576;42.098;24.876;2023-04-25T09:42:41;98858.50;;;20.41;59.79
44839;BME280;30576;42.098;24.876;2023-04-25T09:45:10;98836.50;;;20.35;60.24
44839;BME280;30576;42.098;24.876;2023-04-25T09:48:03;98855.94;;;20.65;60.72
44839;BME280;30576;42.098;24.876;2023-04-25T09:50:34;98865.69;;;20.79;58.35
44839;BME280;30576;42.098;24.876;2023-04-25T09:53:10;98856.69;;;20.92;58.42
44839;BME280;30576;42.098;24.876;2023-04-25T09:55:49;98824.25;;;20.71;56.43
44839;BME280;30576;42.098;24.876;2023-04-25T09:58:18;98774.19;;;20.33;55.21
44839;BME280;30576;42.098;24.876;2023-04-25T10:00:51;98802.56;;;20.10;57.44
44839;BME280;30576;42.098;24.876;2023-04-25T10:03:17;98759.56;;;19.86;57.96
44839;BME280;30576;42.098;24.876;2023-04-25T10:05:46;98774.19;;;20.20;55.73
44839;BME280;30576;42.098;24.876;2023-04-25T10:08:14;98784.78;;;20.35;55.23
44839;BME280;30576;42.098;24.876;2023-04-25T10:10:42;98793.03;;;20.19;57.59
44839;BME280;30576;42.098;24.876;2023-04-25T10:13:08;98775.56;;;20.13;57.75
44839;BME280;30576;42.098;24.876;2023-04-25T10:15:37;98752.63;;;20.09;58.78
44839;BME280;30576;42.098;24.876;2023-04-25T10:18:05;98782.31;;;20.45;55.59
44839;BME280;30576;42.098;24.876;2023-04-25T10:20:32;98805.91;;;20.78;55.65
44839;BME280;30576;42.098;24.876;2023-04-25T10:23:04;98750.59;;;20.64;55.69
44839;BME280;30576;42.098;24.876;2023-04-25T10:25:33;98770.72;;;20.57;57.04
44839;BME280;30576;42.098;24.876;2023-04-25T10:27:59;98752.22;;;20.67;56.72
44839;BME280;30576;42.098;24.876;2023-04-25T10:30:26;98723.81;;;20.51;58.41
44839;BME280;30576;42.098;24.876;2023-04-25T10:32:54;98716.75;;;20.50;59.63
44839;BME280;30576;42.098;24.876;2023-04-25T10:35:27;98740.66;;;20.41;62.19
44839;BME280;30576;42.098;24.876;2023-04-25T10:38:09;98783.81;;;21.24;61.61
44839;BME280;30576;42.098;24.876;2023-04-25T10:40:36;98745.31;;;21.13;63.69
44839;BME280;30576;42.098;24.876;2023-04-25T10:43:33;98755.34;;;21.59;63.63
44839;BME280;30576;42.098;24.876;2023-04-25T10:46:00;98692.56;;;21.13;59.47
44839;BME280;30576;42.098;24.876;2023-04-25T10:48:29;98707.59;;;21.75;61.89
44839;BME280;30576;42.098;24.876;2023-04-25T10:51:12;98714.13;;;21.36;58.46
44839;BME280;30576;42.098;24.876;2023-04-25T10:53:40;98683.66;;;21.13;58.32
44839;BME280;30576;42.098;24.876;2023-04-25T10:56:11;98678.66;;;20.84;57.56
44839;BME280;30576;42.098;24.876;2023-04-25T10:58:42;98689.44;;;20.95;55.79
44839;BME280;30576;42.098;24.876;2023-04-25T11:01:09;98675.56;;;20.64;58.48
44839;BME280;30576;42.098;24.876;2023-04-25T11:03:40;98650.81;;;20.24;57.76
44839;BME280;30576;42.098;24.876;2023-04-25T11:06:18;98724.78;;;20.50;57.36
44839;BME280;30576;42.098;24.876;2023-04-25T11:08:50;98748.75;;;20.90;57.39
44839;BME280;30576;42.098;24.876;2023-04-25T11:11:19;98682.81;;;20.88;57.00
44839;BME280;30576;42.098;24.876;2023-04-25T11:13:49;98681.31;;;21.08;56.58
44839;BME280;30576;42.098;24.876;2023-04-25T11:16:24;98705.50;;;21.43;55.12
44839;BME280;30576;42.098;24.876;2023-04-25T11:18:50;98665.81;;;21.24;54.98
44839;BME280;30576;42.098;24.876;2023-04-25T11:21:16;98674.38;;;21.05;55.17
44839;BME280;30576;42.098;24.876;2023-04-25T11:23:44;98643.34;;;20.66;56.36
44839;BME280;30576;42.098;24.876;2023-04-25T11:26:12;98629.97;;;20.53;53.46
44839;BME280;30576;42.098;24.876;2023-04-25T11:28:38;98646.50;;;20.84;55.61
44839;BME280;30576;42.098;24.876;2023-04-25T11:31:04;98641.78;;;21.23;54.69
44839;BME280;30576;42.098;24.876;2023-04-25T11:33:29;98649.50;;;21.03;51.79
44839;BME280;30576;42.098;24.876;2023-04-25T11:35:55;98689.75;;;21.39;52.79
44839;BME280;30576;42.098;24.876;2023-04-25T11:38:24;98668.88;;;21.31;49.82
44839;BME280;30576;42.098;24.876;2023-04-25T11:40:52;98617.22;;;21.05;49.79
44839;BME280;30576;42.098;24.876;2023-04-25T11:43:22;98642.03;;;21.20;48.49
44839;BME280;30576;42.098;24.876;2023-04-25T11:45:48;98637.28;;;21.23;47.71
44839;BME280;30576;42.098;24.876;2023-04-25T11:48:14;98624.28;;;21.06;49.40
44839;BME280;30576;42.098;24.876;2023-04-25T11:50:40;98564.22;;;20.73;50.81
44839;BME280;30576;42.098;24.876;2023-04-25T11:53:05;98621.03;;;20.89;49.45
44839;BME280;30576;42.098;24.876;2023-04-25T11:55:31;98603.03;;;20.91;48.70
44839;BME280;30576;42.098;24.876;2023-04-25T11:57:59;98643.72;;;21.21;53.10
44839;BME280;30576;42.098;24.876;2023-04-25T12:00:26;98587.75;;;21.16;52.09
44839;BME280;30576;42.098;24.876;2023-04-25T12:02:53;98591.69;;;21.70;48.81
44839;BME280;30576;42.098;24.876;2023-04-25T12:05:19;98639.41;;;22.12;50.67
44839;BME280;30576;42.098;24.876;2023-04-25T12:07:46;98575.09;;;21.76;49.97
44839;BME280;30576;42.098;24.876;2023-04-25T12:10:13;98605.97;;;21.82;47.35
44839;BME280;30576;42.098;24.876;2023-04-25T12:12:43;98535.81;;;21.64;44.63
44839;BME280;30576;42.098;24.876;2023-04-25T12:15:15;98551.53;;;21.69;47.30
44839;BME280;30576;42.098;24.876;2023-04-25T12:17:47;98621.13;;;22.17;49.14
44839;BME280;30576;42.098;24.876;2023-04-25T12:20:15;98627.22;;;22.08;48.59
44839;BME280;30576;42.098;24.876;2023-04-25T12:22:42;98624.06;;;22.48;50.55
44839;BME280;30576;42.098;24.876;2023-04-25T12:25:39;98575.69;;;22.25;46.81
44839;BME280;30576;42.098;24.876;2023-04-25T12:30:53;98591.59;;;23.04;45.42
44839;BME280;30576;42.098;24.876;2023-04-25T12:33:18;98540.19;;;22.98;44.22
44839;BME280;30576;42.098;24.876;2023-04-25T12:35:44;98560.06;;;23.06;43.83
44839;BME280;30576;42.098;24.876;2023-04-25T12:38:21;98594.94;;;23.29;41.40
44839;BME280;30576;42.098;24.876;2023-04-25T12:40:49;98552.56;;;22.57;41.87
44839;BME280;30576;42.098;24.876;2023-04-25T12:43:14;98568.78;;;22.66;41.21
44839;BME280;30576;42.098;24.876;2023-04-25T12:45:40;98547.34;;;22.44;41.32
44839;BME280;30576;42.098;24.876;2023-04-25T12:48:05;98572.00;;;22.60;42.00
44839;BME280;30576;42.098;24.876;2023-04-25T12:50:31;98570.34;;;22.80;42.86
44839;BME280;30576;42.098;24.876;2023-04-25T12:52:57;98555.84;;;23.25;42.80
44839;BME280;30576;42.098;24.876;2023-04-25T12:55:22;98538.97;;;23.02;40.93
44839;BME280;30576;42.098;24.876;2023-04-25T12:57:48;98524.06;;;22.98;40.58
44839;BME280;30576;42.098;24.876;2023-04-25T13:00:14;98525.19;;;23.37;42.58
44839;BME280;30576;42.098;24.876;2023-04-25T13:02:55;98509.38;;;23.23;41.89
44839;BME280;30576;42.098;24.876;2023-04-25T13:05:21;98574.66;;;23.67;41.72
44839;BME280;30576;42.098;24.876;2023-04-25T13:07:46;98545.66;;;23.29;39.93
44839;BME280;30576;42.098;24.876;2023-04-25T13:10:12;98531.94;;;22.89;41.03
44839;BME280;30576;42.098;24.876;2023-04-25T13:12:37;98547.66;;;22.94;39.95
44839;BME280;30576;42.098;24.876;2023-04-25T13:15:03;98518.50;;;22.78;42.02
44839;BME280;30576;42.098;24.876;2023-04-25T13:17:29;98509.53;;;22.89;40.88
44839;BME280;30576;42.098;24.876;2023-04-25T13:19:55;98541.63;;;23.65;40.51
44839;BME280;30576;42.098;24.876;2023-04-25T13:22:21;98516.38;;;23.87;39.52
44839;BME280;30576;42.098;24.876;2023-04-25T13:24:47;98516.50;;;23.55;39.26
44839;BME280;30576;42.098;24.876;2023-04-25T13:27:13;98499.19;;;23.48;38.88
44839;BME280;30576;42.098;24.876;2023-04-25T13:29:38;98502.84;;;23.04;40.50
44839;BME280;30576;42.098;24.876;2023-04-25T13:32:06;98479.00;;;22.90;40.14
44839;BME280;30576;42.098;24.876;2023-04-25T13:34:32;98488.00;;;22.47;41.57
44839;BME280;30576;42.098;24.876;2023-04-25T13:36:57;98492.56;;;22.24;41.85
44839;BME280;30576;42.098;24.876;2023-04-25T13:39:24;98559.31;;;22.51;42.24
44839;BME280;30576;42.098;24.876;2023-04-25T13:41:49;98524.19;;;22.31;41.74
44839;BME280;30576;42.098;24.876;2023-04-25T13:44:15;98527.72;;;22.32;44.78
44839;BME280;30576;42.098;24.876;2023-04-25T13:46:40;98562.50;;;22.33;53.98
44839;BME280;30576;42.098;24.876;2023-04-25T13:49:06;98599.50;;;21.85;59.91
44839;BME280;30576;42.098;24.876;2023-04-25T13:51:31;98582.31;;;20.08;60.37
44839;BME280;30576;42.098;24.876;2023-04-25T13:53:57;98602.25;;;19.91;66.29
44839;BME280;30576;42.098;24.876;2023-04-25T13:56:22;98618.69;;;19.46;70.41
44839;BME280;30576;42.098;24.876;2023-04-25T13:58:50;98566.97;;;19.07;71.30
44839;BME280;30576;42.098;24.876;2023-04-25T14:01:16;98610.22;;;18.87;73.26
44839;BME280;30576;42.098;24.876;2023-04-25T14:03:42;98540.59;;;18.75;72.75
44839;BME280;30576;42.098;24.876;2023-04-25T14:06:08;98625.38;;;18.72;72.17
44839;BME280;30576;42.098;24.876;2023-04-25T14:08:34;98577.50;;;18.69;70.77
44839;BME280;30576;42.098;24.876;2023-04-25T14:10:59;98578.66;;;19.19;67.34
44839;BME280;30576;42.098;24.876;2023-04-25T14:13:26;98521.56;;;19.20;70.10
44839;BME280;30576;42.098;24.876;2023-04-25T14:15:51;98598.00;;;20.26;70.72
44839;BME280;30576;42.098;24.876;2023-04-25T14:18:17;98579.38;;;20.24;64.73
44839;BME280;30576;42.098;24.876;2023-04-25T14:20:42;98577.88;;;20.20;60.59
44839;BME280;30576;42.098;24.876;2023-04-25T14:23:08;98586.00;;;20.31;64.17
44839;BME280;30576;42.098;24.876;2023-04-25T14:25:33;98548.19;;;19.86;58.74
44839;BME280;30576;42.098;24.876;2023-04-25T14:28:00;98572.38;;;19.84;59.56
44839;BME280;30576;42.098;24.876;2023-04-25T14:30:26;98591.31;;;19.56;64.39
44839;BME280;30576;42.098;24.876;2023-04-25T14:32:51;98589.50;;;19.82;63.14
44839;BME280;30576;42.098;24.876;2023-04-25T14:35:17;98581.88;;;19.76;65.45
44839;BME280;30576;42.098;24.876;2023-04-25T14:37:42;98552.56;;;19.74;63.42
44839;BME280;30576;42.098;24.876;2023-04-25T14:40:08;98589.22;;;20.24;61.94
44839;BME280;30576;42.098;24.876;2023-04-25T14:42:36;98578.91;;;20.30;60.71
44839;BME280;30576;42.098;24.876;2023-04-25T14:45:06;98586.84;;;20.32;61.37
44839;BME280;30576;42.098;24.876;2023-04-25T14:47:32;98585.09;;;19.94;63.87
44839;BME280;30576;42.098;24.876;2023-04-25T14:49:58;98552.66;;;19.60;62.62
44839;BME280;30576;42.098;24.876;2023-04-25T14:52:23;98570.34;;;19.49;63.34
44839;BME280;30576;42.098;24.876;2023-04-25T14:54:49;98561.56;;;19.47;64.75
44839;BME280;30576;42.098;24.876;2023-04-25T14:57:15;98571.50;;;19.45;60.97
44839;BME280;30576;42.098;24.876;2023-04-25T14:59:41;98580.94;;;19.90;62.04
44839;BME280;30576;42.098;24.876;2023-04-25T15:02:06;98601.63;;;20.25;60.36